sensor_id;sensor_type;location;lat;lon;timestamp;temperature;humidity
19732;DHT22;10017;54.350;18.532;2022-12-17T00:00:48;-1.30;99.90
19732;DHT22;10017;54.350;18.532;2022-12-17T00:03:39;-1.30;99.90
19732;DHT22;10017;54.350;18.532;2022-12-17T00:06:30;-1.30;99.90
19732;DHT22;10017;54.350;18.532;2022-12-17T00:09:20;-1.30;99.90
19732;DHT22;10017;54.350;18.532;2022-12-17T00:12:10;-1.30;99.90
19732;DHT22;10017;54.350;18.532;2022-12-17T00:15:00;-1.30;99.90
19732;DHT22;10017;54.350;18.532;2022-12-17T00:17:57;-1.30;99.90
19732;DHT22;10017;54.350;18.532;2022-12-17T00:20:54;-1.30;99.90
19732;DHT22;10017;54.350;18.532;2022-12-17T00:23:45;-1.30;99.90
19732;DHT22;10017;54.350;18.532;2022-12-17T00:26:37;-1.30;99.90
19732;DHT22;10017;54.350;18.532;2022-12-17T00:29:32;-1.40;99.90
19732;DHT22;10017;54.350;18.532;2022-12-17T00:32:25;-1.30;99.90
19732;DHT22;10017;54.350;18.532;2022-12-17T00:35:15;-1.30;99.90
19732;DHT22;10017;54.350;18.532;2022-12-17T00:38:05;-1.30;99.90
19732;DHT22;10017;54.350;18.532;2022-12-17T00:40:56;-1.30;99.90
19732;DHT22;10017;54.350;18.532;2022-12-17T00:43:46;-1.30;99.90
19732;DHT22;10017;54.350;18.532;2022-12-17T00:46:36;-1.40;99.90
19732;DHT22;10017;54.350;18.532;2022-12-17T00:49:26;-1.40;99.90
19732;DHT22;10017;54.350;18.532;2022-12-17T00:52:19;-1.40;99.90
19732;DHT22;10017;54.350;18.532;2022-12-17T00:55:10;-1.40;99.90
19732;DHT22;10017;54.350;18.532;2022-12-17T00:58:00;-1.40;99.90
19732;DHT22;10017;54.350;18.532;2022-12-17T01:00:50;-1.30;99.90
19732;DHT22;10017;54.350;18.532;2022-12-17T01:03:40;-1.30;99.90
19732;DHT22;10017;54.350;18.532;2022-12-17T01:06:30;-1.40;99.90
19732;DHT22;10017;54.350;18.532;2022-12-17T01:09:21;-1.40;99.90
19732;DHT22;10017;54.350;18.532;2022-12-17T01:12:11;-1.40;99.90
19732;DHT22;10017;54.350;18.532;2022-12-17T01:15:01;-1.40;99.90
19732;DHT22;10017;54.350;18.532;2022-12-17T01:17:51;-1.40;99.90
19732;DHT22;10017;54.350;18.532;2022-12-17T01:20:42;-1.40;99.90
19732;DHT22;10017;54.350;18.532;2022-12-17T01:23:32;-1.50;99.90
19732;DHT22;10017;54.350;18.532;2022-12-17T01:26:22;-1.50;99.90
19732;DHT22;10017;54.350;18.532;2022-12-17T01:29:12;-1.50;99.90
19732;DHT22;10017;54.350;18.532;2022-12-17T01:32:03;-1.50;99.90
19732;DHT22;10017;54.350;18.532;2022-12-17T01:34:53;-1.50;99.90
19732;DHT22;10017;54.350;18.532;2022-12-17T01:37:43;-1.50;99.90
19732;DHT22;10017;54.350;18.532;2022-12-17T01:40:34;-1.50;99.90
19732;DHT22;10017;54.350;18.532;2022-12-17T01:43:34;-1.50;99.90
19732;DHT22;10017;54.350;18.532;2022-12-17T01:46:26;-1.50;99.90
19732;DHT22;10017;54.350;18.532;2022-12-17T01:49:18;-1.50;99.90
19732;DHT22;10017;54.350;18.532;2022-12-17T01:52:11;-1.50;99.90
19732;DHT22;10017;54.350;18.532;2022-12-17T01:55:02;-1.60;99.90
19732;DHT22;10017;54.350;18.532;2022-12-17T01:57:53;-1.60;99.90
19732;DHT22;10017;54.350;18.532;2022-12-17T02:00:43;-1.60;99.90
19732;DHT22;10017;54.350;18.532;2022-12-17T02:03:52;-1.60;99.90
19732;DHT22;10017;54.350;18.532;2022-12-17T02:06:46;-1.60;99.90
19732;DHT22;10017;54.350;18.532;2022-12-17T02:09:45;-1.60;99.90
19732;DHT22;10017;54.350;18.532;2022-12-17T02:12:43;-1.60;99.90
19732;DHT22;10017;54.350;18.532;2022-12-17T02:15:47;-1.70;99.90
19732;DHT22;10017;54.350;18.532;2022-12-17T02:18:42;-1.70;99.90
19732;DHT22;10017;54.350;18.532;2022-12-17T02:21:34;-1.70;99.90
19732;DHT22;10017;54.350;18.532;2022-12-17T02:24:38;-1.80;99.90
19732;DHT22;10017;54.350;18.532;2022-12-17T02:27:31;-1.80;99.90
19732;DHT22;10017;54.350;18.532;2022-12-17T02:30:24;-1.80;99.90
19732;DHT22;10017;54.350;18.532;2022-12-17T02:33:35;-1.80;99.90
19732;DHT22;10017;54.350;18.532;2022-12-17T02:36:27;-1.90;99.90
19732;DHT22;10017;54.350;18.532;2022-12-17T02:39:17;-1.90;99.90
19732;DHT22;10017;54.350;18.532;2022-12-17T02:42:08;-1.90;99.90
19732;DHT22;10017;54.350;18.532;2022-12-17T02:44:58;-1.90;99.90
19732;DHT22;10017;54.350;18.532;2022-12-17T02:47:49;-1.90;99.90
19732;DHT22;10017;54.350;18.532;2022-12-17T02:50:40;-2.00;99.90
19732;DHT22;10017;54.350;18.532;2022-12-17T02:53:33;-2.00;99.90
19732;DHT22;10017;54.350;18.532;2022-12-17T02:56:23;-2.00;99.90
19732;DHT22;10017;54.350;18.532;2022-12-17T02:59:14;-2.00;99.90
19732;DHT22;10017;54.350;18.532;2022-12-17T03:02:06;-2.00;99.90
19732;DHT22;10017;54.350;18.532;2022-12-17T03:04:57;-2.00;99.90
19732;DHT22;10017;54.350;18.532;2022-12-17T03:08:07;-2.10;99.90
19732;DHT22;10017;54.350;18.532;2022-12-17T03:11:00;-2.10;99.90
19732;DHT22;10017;54.350;18.532;2022-12-17T03:13:50;-2.10;99.90
19732;DHT22;10017;54.350;18.532;2022-12-17T03:16:41;-2.20;99.90
19732;DHT22;10017;54.350;18.532;2022-12-17T03:19:31;-2.20;99.90
19732;DHT22;10017;54.350;18.532;2022-12-17T03:22:21;-2.20;99.90
19732;DHT22;10017;54.350;18.532;2022-12-17T03:25:11;-2.20;99.90
19732;DHT22;10017;54.350;18.532;2022-12-17T03:28:03;-2.20;99.90
19732;DHT22;10017;54.350;18.532;2022-12-17T03:30:56;-2.20;99.90
19732;DHT22;10017;54.350;18.532;2022-12-17T03:33:46;-2.20;99.90
19732;DHT22;10017;54.350;18.532;2022-12-17T03:36:36;-2.20;99.90
19732;DHT22;10017;54.350;18.532;2022-12-17T03:39:26;-2.20;99.90
19732;DHT22;10017;54.350;18.532;2022-12-17T03:42:17;-2.20;99.90
19732;DHT22;10017;54.350;18.532;2022-12-17T03:45:08;-2.20;99.90
19732;DHT22;10017;54.350;18.532;2022-12-17T03:48:08;-2.20;99.90
19732;DHT22;10017;54.350;18.532;2022-12-17T03:50:59;-2.20;99.90
19732;DHT22;10017;54.350;18.532;2022-12-17T03:53:49;-2.20;99.90
19732;DHT22;10017;54.350;18.532;2022-12-17T03:56:40;-2.30;99.90
19732;DHT22;10017;54.350;18.532;2022-12-17T03:59:30;-2.20;99.90
19732;DHT22;10017;54.350;18.532;2022-12-17T04:02:20;-2.20;99.90
19732;DHT22;10017;54.350;18.532;2022-12-17T04:05:11;-2.20;99.90
19732;DHT22;10017;54.350;18.532;2022-12-17T04:08:01;-2.20;99.90
19732;DHT22;10017;54.350;18.532;2022-12-17T04:10:51;-2.20;99.90
19732;DHT22;10017;54.350;18.532;2022-12-17T04:13:41;-2.20;99.90
19732;DHT22;10017;54.350;18.532;2022-12-17T04:16:32;-2.20;99.90
19732;DHT22;10017;54.350;18.532;2022-12-17T04:19:22;-2.30;99.90
19732;DHT22;10017;54.350;18.532;2022-12-17T04:22:12;-2.30;99.90
19732;DHT22;10017;54.350;18.532;2022-12-17T04:25:03;-2.20;99.90
19732;DHT22;10017;54.350;18.532;2022-12-17T04:27:53;-2.20;99.90
19732;DHT22;10017;54.350;18.532;2022-12-17T04:30:44;-2.20;99.90
19732;DHT22;10017;54.350;18.532;2022-12-17T04:33:35;-2.20;99.90
19732;DHT22;10017;54.350;18.532;2022-12-17T04:36:25;-2.10;99.90
19732;DHT22;10017;54.350;18.532;2022-12-17T04:39:15;-2.20;99.90
19732;DHT22;10017;54.350;18.532;2022-12-17T04:42:21;-2.20;99.90
19732;DHT22;10017;54.350;18.532;2022-12-17T04:45:12;-2.20;99.90
19732;DHT22;10017;54.350;18.532;2022-12-17T04:48:03;-2.20;99.90
19732;DHT22;10017;54.350;18.532;2022-12-17T04:50:54;-2.20;99.90
19732;DHT22;10017;54.350;18.532;2022-12-17T04:53:46;-2.20;99.90
19732;DHT22;10017;54.350;18.532;2022-12-17T04:56:36;-2.20;99.90
19732;DHT22;10017;54.350;18.532;2022-12-17T04:59:26;-2.10;99.90
19732;DHT22;10017;54.350;18.532;2022-12-17T05:02:17;-2.20;99.90
19732;DHT22;10017;54.350;18.532;2022-12-17T05:05:13;-2.20;99.90
19732;DHT22;10017;54.350;18.532;2022-12-17T05:08:03;-2.20;99.90
19732;DHT22;10017;54.350;18.532;2022-12-17T05:10:53;-2.20;99.90
19732;DHT22;10017;54.350;18.532;2022-12-17T05:13:43;-2.20;99.90
19732;DHT22;10017;54.350;18.532;2022-12-17T05:16:34;-2.20;99.90
19732;DHT22;10017;54.350;18.532;2022-12-17T05:19:24;-2.20;99.90
19732;DHT22;10017;54.350;18.532;2022-12-17T05:22:14;-2.20;99.90
19732;DHT22;10017;54.350;18.532;2022-12-17T05:25:05;-2.20;99.90
19732;DHT22;10017;54.350;18.532;2022-12-17T05:27:55;-2.20;99.90
19732;DHT22;10017;54.350;18.532;2022-12-17T05:30:52;-2.20;99.90
19732;DHT22;10017;54.350;18.532;2022-12-17T05:33:43;-2.20;99.90
19732;DHT22;10017;54.350;18.532;2022-12-17T05:36:35;-2.20;99.90
19732;DHT22;10017;54.350;18.532;2022-12-17T05:39:36;-2.20;99.90
19732;DHT22;10017;54.350;18.532;2022-12-17T05:42:26;-2.20;99.90
19732;DHT22;10017;54.350;18.532;2022-12-17T05:45:16;-2.20;99.90
19732;DHT22;10017;54.350;18.532;2022-12-17T05:48:07;-2.20;99.90
19732;DHT22;10017;54.350;18.532;2022-12-17T05:50:57;-2.20;99.90
19732;DHT22;10017;54.350;18.532;2022-12-17T05:53:47;-2.20;99.90
19732;DHT22;10017;54.350;18.532;2022-12-17T05:56:38;-2.20;99.90
19732;DHT22;10017;54.350;18.532;2022-12-17T05:59:28;-2.20;99.90
19732;DHT22;10017;54.350;18.532;2022-12-17T06:02:18;-2.20;99.90
19732;DHT22;10017;54.350;18.532;2022-12-17T06:05:09;-2.20;99.90
19732;DHT22;10017;54.350;18.532;2022-12-17T06:08:03;-2.20;99.90
19732;DHT22;10017;54.350;18.532;2022-12-17T06:10:53;-2.30;99.90
19732;DHT22;10017;54.350;18.532;2022-12-17T06:13:46;-2.30;99.90
19732;DHT22;10017;54.350;18.532;2022-12-17T06:16:37;-2.30;99.90
19732;DHT22;10017;54.350;18.532;2022-12-17T06:19:27;-2.30;99.90
19732;DHT22;10017;54.350;18.532;2022-12-17T06:22:17;-2.30;99.90
19732;DHT22;10017;54.350;18.532;2022-12-17T06:25:08;-2.30;99.90
19732;DHT22;10017;54.350;18.532;2022-12-17T06:27:58;-2.30;99.90
19732;DHT22;10017;54.350;18.532;2022-12-17T06:30:49;-2.30;99.90
19732;DHT22;10017;54.350;18.532;2022-12-17T06:33:40;-2.30;99.90
19732;DHT22;10017;54.350;18.532;2022-12-17T06:36:50;-2.30;99.90
19732;DHT22;10017;54.350;18.532;2022-12-17T06:39:40;-2.30;99.90
19732;DHT22;10017;54.350;18.532;2022-12-17T06:42:31;-2.30;99.90
19732;DHT22;10017;54.350;18.532;2022-12-17T06:45:21;-2.30;99.90
19732;DHT22;10017;54.350;18.532;2022-12-17T06:48:11;-2.30;99.90
19732;DHT22;10017;54.350;18.532;2022-12-17T06:51:02;-2.30;99.90
19732;DHT22;10017;54.350;18.532;2022-12-17T06:53:52;-2.30;99.90
19732;DHT22;10017;54.350;18.532;2022-12-17T06:56:42;-2.30;99.90
19732;DHT22;10017;54.350;18.532;2022-12-17T06:59:32;-2.30;99.90
19732;DHT22;10017;54.350;18.532;2022-12-17T07:02:23;-2.40;99.90
19732;DHT22;10017;54.350;18.532;2022-12-17T07:05:13;-2.30;99.90
19732;DHT22;10017;54.350;18.532;2022-12-17T07:08:04;-2.40;99.90
19732;DHT22;10017;54.350;18.532;2022-12-17T07:10:54;-2.30;99.90
19732;DHT22;10017;54.350;18.532;2022-12-17T07:13:44;-2.30;99.90
19732;DHT22;10017;54.350;18.532;2022-12-17T07:16:34;-2.30;99.90
19732;DHT22;10017;54.350;18.532;2022-12-17T07:19:24;-2.30;99.90
19732;DHT22;10017;54.350;18.532;2022-12-17T07:22:17;-2.20;99.90
19732;DHT22;10017;54.350;18.532;2022-12-17T07:25:07;-2.20;99.90
19732;DHT22;10017;54.350;18.532;2022-12-17T07:27:58;-2.20;99.90
19732;DHT22;10017;54.350;18.532;2022-12-17T07:30:48;-2.20;99.90
19732;DHT22;10017;54.350;18.532;2022-12-17T07:33:38;-2.20;99.90
19732;DHT22;10017;54.350;18.532;2022-12-17T07:36:29;-2.10;99.90
19732;DHT22;10017;54.350;18.532;2022-12-17T07:39:19;-2.10;99.90
19732;DHT22;10017;54.350;18.532;2022-12-17T07:42:09;-2.00;99.90
19732;DHT22;10017;54.350;18.532;2022-12-17T07:44:59;-2.00;99.90
19732;DHT22;10017;54.350;18.532;2022-12-17T07:47:50;-1.90;99.90
19732;DHT22;10017;54.350;18.532;2022-12-17T07:50:40;-1.90;99.90
19732;DHT22;10017;54.350;18.532;2022-12-17T07:53:31;-1.80;99.90
19732;DHT22;10017;54.350;18.532;2022-12-17T07:56:22;-1.80;99.90
19732;DHT22;10017;54.350;18.532;2022-12-17T07:59:16;-1.80;99.90
19732;DHT22;10017;54.350;18.532;2022-12-17T08:02:08;-1.70;99.90
19732;DHT22;10017;54.350;18.532;2022-12-17T08:04:59;-1.70;99.90
19732;DHT22;10017;54.350;18.532;2022-12-17T08:07:49;-1.60;99.90
19732;DHT22;10017;54.350;18.532;2022-12-17T08:10:39;-1.60;99.90
19732;DHT22;10017;54.350;18.532;2022-12-17T08:13:30;-1.60;99.90
19732;DHT22;10017;54.350;18.532;2022-12-17T08:16:30;-1.50;99.90
19732;DHT22;10017;54.350;18.532;2022-12-17T08:19:20;-1.50;99.90
19732;DHT22;10017;54.350;18.532;2022-12-17T08:22:10;-1.40;99.90
19732;DHT22;10017;54.350;18.532;2022-12-17T08:25:01;-1.40;99.90
19732;DHT22;10017;54.350;18.532;2022-12-17T08:27:55;-1.30;99.90
19732;DHT22;10017;54.350;18.532;2022-12-17T08:31:05;-1.20;99.90
19732;DHT22;10017;54.350;18.532;2022-12-17T08:33:56;-1.20;99.90
19732;DHT22;10017;54.350;18.532;2022-12-17T08:36:46;-1.10;99.90
19732;DHT22;10017;54.350;18.532;2022-12-17T08:39:36;-1.10;99.90
19732;DHT22;10017;54.350;18.532;2022-12-17T08:42:26;-1.10;99.90
19732;DHT22;10017;54.350;18.532;2022-12-17T08:45:17;-1.00;99.90
19732;DHT22;10017;54.350;18.532;2022-12-17T08:48:07;-0.90;99.90
19732;DHT22;10017;54.350;18.532;2022-12-17T08:50:57;-0.80;99.90
19732;DHT22;10017;54.350;18.532;2022-12-17T08:53:50;-0.70;99.90
19732;DHT22;10017;54.350;18.532;2022-12-17T08:56:41;-0.60;99.90
19732;DHT22;10017;54.350;18.532;2022-12-17T08:59:31;-0.60;99.90
19732;DHT22;10017;54.350;18.532;2022-12-17T09:02:21;-0.60;99.90
19732;DHT22;10017;54.350;18.532;2022-12-17T09:05:12;-0.70;99.90
19732;DHT22;10017;54.350;18.532;2022-12-17T09:08:03;-0.70;99.90
19732;DHT22;10017;54.350;18.532;2022-12-17T09:10:54;-0.80;99.90
19732;DHT22;10017;54.350;18.532;2022-12-17T09:13:44;-0.80;99.90
19732;DHT22;10017;54.350;18.532;2022-12-17T09:16:34;-0.90;99.90
19732;DHT22;10017;54.350;18.532;2022-12-17T09:19:25;-0.90;99.90
19732;DHT22;10017;54.350;18.532;2022-12-17T09:22:15;-0.90;99.90
19732;DHT22;10017;54.350;18.532;2022-12-17T09:25:05;-0.80;99.90
19732;DHT22;10017;54.350;18.532;2022-12-17T09:27:58;-0.80;99.90
19732;DHT22;10017;54.350;18.532;2022-12-17T09:30:49;-0.70;99.90
19732;DHT22;10017;54.350;18.532;2022-12-17T09:33:39;-0.70;99.90
19732;DHT22;10017;54.350;18.532;2022-12-17T09:36:30;-0.70;99.90
19732;DHT22;10017;54.350;18.532;2022-12-17T09:39:22;-0.80;99.90
19732;DHT22;10017;54.350;18.532;2022-12-17T09:45:40;-0.80;99.90
19732;DHT22;10017;54.350;18.532;2022-12-17T09:51:25;-0.80;99.90
19732;DHT22;10017;54.350;18.532;2022-12-17T09:54:30;-0.70;99.90
19732;DHT22;10017;54.350;18.532;2022-12-17T09:57:31;-0.50;99.90
19732;DHT22;10017;54.350;18.532;2022-12-17T10:00:23;-0.30;99.90
19732;DHT22;10017;54.350;18.532;2022-12-17T10:03:15;-0.30;99.90
19732;DHT22;10017;54.350;18.532;2022-12-17T10:06:08;-0.20;99.90
19732;DHT22;10017;54.350;18.532;2022-12-17T10:09:00;-0.20;99.90
19732;DHT22;10017;54.350;18.532;2022-12-17T10:11:50;-0.20;99.90
19732;DHT22;10017;54.350;18.532;2022-12-17T10:14:41;-0.30;99.90
19732;DHT22;10017;54.350;18.532;2022-12-17T10:17:42;-0.30;99.90
19732;DHT22;10017;54.350;18.532;2022-12-17T10:20:40;-0.30;99.90
19732;DHT22;10017;54.350;18.532;2022-12-17T10:23:32;-0.40;99.90
19732;DHT22;10017;54.350;18.532;2022-12-17T10:26:24;-0.40;99.90
19732;DHT22;10017;54.350;18.532;2022-12-17T10:29:16;-0.40;99.90
19732;DHT22;10017;54.350;18.532;2022-12-17T10:35:16;-0.40;99.90
19732;DHT22;10017;54.350;18.532;2022-12-17T10:38:11;-0.30;99.90
19732;DHT22;10017;54.350;18.532;2022-12-17T10:41:02;-0.30;99.90
19732;DHT22;10017;54.350;18.532;2022-12-17T10:43:52;-0.40;99.90
19732;DHT22;10017;54.350;18.532;2022-12-17T10:46:42;-0.30;99.90
19732;DHT22;10017;54.350;18.532;2022-12-17T10:49:32;-0.30;99.90
19732;DHT22;10017;54.350;18.532;2022-12-17T10:52:43;-0.30;99.90
19732;DHT22;10017;54.350;18.532;2022-12-17T10:55:34;-0.20;99.90
19732;DHT22;10017;54.350;18.532;2022-12-17T10:58:26;-0.20;99.90
19732;DHT22;10017;54.350;18.532;2022-12-17T11:01:21;-0.20;99.90
19732;DHT22;10017;54.350;18.532;2022-12-17T11:07:35;-0.20;99.90
19732;DHT22;10017;54.350;18.532;2022-12-17T11:10:25;-0.20;99.90
19732;DHT22;10017;54.350;18.532;2022-12-17T11:16:25;-0.10;99.90
19732;DHT22;10017;54.350;18.532;2022-12-17T11:19:35;-0.20;99.90
19732;DHT22;10017;54.350;18.532;2022-12-17T11:22:32;-0.20;99.90
19732;DHT22;10017;54.350;18.532;2022-12-17T11:28:35;-0.10;99.90
19732;DHT22;10017;54.350;18.532;2022-12-17T11:31:30;-0.10;99.90
19732;DHT22;10017;54.350;18.532;2022-12-17T11:37:17;-0.10;99.90
19732;DHT22;10017;54.350;18.532;2022-12-17T11:49:52;0.20;99.90
19732;DHT22;10017;54.350;18.532;2022-12-17T11:55:16;0.10;99.90
19732;DHT22;10017;54.350;18.532;2022-12-17T11:58:13;0.10;99.90
19732;DHT22;10017;54.350;18.532;2022-12-17T12:07:09;0.10;99.90
19732;DHT22;10017;54.350;18.532;2022-12-17T12:10:07;0.10;99.90
19732;DHT22;10017;54.350;18.532;2022-12-17T12:21:44;0.00;99.90
19732;DHT22;10017;54.350;18.532;2022-12-17T12:25:02;0.00;99.90
19732;DHT22;10017;54.350;18.532;2022-12-17T12:27:59;0.00;99.90
19732;DHT22;10017;54.350;18.532;2022-12-17T12:30:57;0.00;99.90
19732;DHT22;10017;54.350;18.532;2022-12-17T12:33:55;0.00;99.90
19732;DHT22;10017;54.350;18.532;2022-12-17T12:36:46;0.00;99.90
19732;DHT22;10017;54.350;18.532;2022-12-17T12:39:46;-0.10;99.90
19732;DHT22;10017;54.350;18.532;2022-12-17T12:42:44;-0.10;99.90
19732;DHT22;10017;54.350;18.532;2022-12-17T12:45:37;-0.10;99.90
19732;DHT22;10017;54.350;18.532;2022-12-17T12:51:25;-0.20;99.90
19732;DHT22;10017;54.350;18.532;2022-12-17T12:54:20;-0.20;99.90
19732;DHT22;10017;54.350;18.532;2022-12-17T13:03:30;-0.20;99.90
19732;DHT22;10017;54.350;18.532;2022-12-17T13:20:32;-0.30;99.90
19732;DHT22;10017;54.350;18.532;2022-12-17T13:22:47;-0.30;99.90
19732;DHT22;10017;54.350;18.532;2022-12-17T13:25:20;-0.30;99.90
19732;DHT22;10017;54.350;18.532;2022-12-17T13:27:52;-0.30;99.90
19732;DHT22;10017;54.350;18.532;2022-12-17T13:30:32;-0.30;99.90
19732;DHT22;10017;54.350;18.532;2022-12-17T13:38:37;-0.40;99.90
19732;DHT22;10017;54.350;18.532;2022-12-17T13:41:15;-0.50;99.90
19732;DHT22;10017;54.350;18.532;2022-12-17T13:43:50;-0.50;99.90
19732;DHT22;10017;54.350;18.532;2022-12-17T13:46:24;-0.60;99.90
19732;DHT22;10017;54.350;18.532;2022-12-17T13:49:00;-0.70;99.90
19732;DHT22;10017;54.350;18.532;2022-12-17T13:51:33;-0.70;99.90
19732;DHT22;10017;54.350;18.532;2022-12-17T13:54:11;-0.80;99.90
19732;DHT22;10017;54.350;18.532;2022-12-17T13:56:45;-0.80;99.90
19732;DHT22;10017;54.350;18.532;2022-12-17T13:59:18;-0.80;99.90
19732;DHT22;10017;54.350;18.532;2022-12-17T14:01:51;-0.80;99.90
19732;DHT22;10017;54.350;18.532;2022-12-17T14:04:28;-0.90;99.90
19732;DHT22;10017;54.350;18.532;2022-12-17T14:07:03;-0.90;99.90
19732;DHT22;10017;54.350;18.532;2022-12-17T14:09:37;-0.90;99.90
19732;DHT22;10017;54.350;18.532;2022-12-17T14:12:10;-0.90;99.90
19732;DHT22;10017;54.350;18.532;2022-12-17T14:15:03;-1.00;99.90
19732;DHT22;10017;54.350;18.532;2022-12-17T14:17:43;-0.90;99.90
19732;DHT22;10017;54.350;18.532;2022-12-17T14:20:16;-1.00;99.90
19732;DHT22;10017;54.350;18.532;2022-12-17T14:22:49;-1.00;99.90
19732;DHT22;10017;54.350;18.532;2022-12-17T14:25:23;-1.10;99.90
19732;DHT22;10017;54.350;18.532;2022-12-17T14:28:02;-1.10;99.90
19732;DHT22;10017;54.350;18.532;2022-12-17T14:33:33;-1.10;99.90
19732;DHT22;10017;54.350;18.532;2022-12-17T14:36:26;-1.20;99.90
19732;DHT22;10017;54.350;18.532;2022-12-17T14:39:04;-1.20;99.90
19732;DHT22;10017;54.350;18.532;2022-12-17T14:41:41;-1.20;99.90
19732;DHT22;10017;54.350;18.532;2022-12-17T14:44:32;-1.20;99.90
19732;DHT22;10017;54.350;18.532;2022-12-17T14:47:12;-1.20;99.90
19732;DHT22;10017;54.350;18.532;2022-12-17T14:49:51;-1.20;99.90
19732;DHT22;10017;54.350;18.532;2022-12-17T14:52:42;-1.20;99.90
19732;DHT22;10017;54.350;18.532;2022-12-17T14:55:22;-1.20;99.90
19732;DHT22;10017;54.350;18.532;2022-12-17T14:58:05;-1.20;99.90
19732;DHT22;10017;54.350;18.532;2022-12-17T15:03:17;-1.20;99.90
19732;DHT22;10017;54.350;18.532;2022-12-17T15:06:02;-1.20;99.90
19732;DHT22;10017;54.350;18.532;2022-12-17T15:08:44;-1.20;99.90
19732;DHT22;10017;54.350;18.532;2022-12-17T15:11:18;-1.20;99.90
19732;DHT22;10017;54.350;18.532;2022-12-17T15:13:50;-1.20;99.90
19732;DHT22;10017;54.350;18.532;2022-12-17T15:16:27;-1.30;99.90
19732;DHT22;10017;54.350;18.532;2022-12-17T15:18:59;-1.30;99.90
19732;DHT22;10017;54.350;18.532;2022-12-17T15:21:31;-1.30;99.90
19732;DHT22;10017;54.350;18.532;2022-12-17T15:24:03;-1.30;99.90
19732;DHT22;10017;54.350;18.532;2022-12-17T15:26:37;-1.30;99.90
19732;DHT22;10017;54.350;18.532;2022-12-17T15:29:08;-1.40;99.90
19732;DHT22;10017;54.350;18.532;2022-12-17T15:31:43;-1.40;99.90
19732;DHT22;10017;54.350;18.532;2022-12-17T15:34:15;-1.40;99.90
19732;DHT22;10017;54.350;18.532;2022-12-17T15:36:47;-1.40;99.90
19732;DHT22;10017;54.350;18.532;2022-12-17T15:39:19;-1.40;99.90
19732;DHT22;10017;54.350;18.532;2022-12-17T15:41:51;-1.40;99.90
19732;DHT22;10017;54.350;18.532;2022-12-17T15:44:43;-1.50;99.90
19732;DHT22;10017;54.350;18.532;2022-12-17T15:47:15;-1.50;99.90
19732;DHT22;10017;54.350;18.532;2022-12-17T15:49:47;-1.50;99.90
19732;DHT22;10017;54.350;18.532;2022-12-17T15:52:19;-1.60;99.90
19732;DHT22;10017;54.350;18.532;2022-12-17T15:54:50;-1.60;99.90
19732;DHT22;10017;54.350;18.532;2022-12-17T15:57:25;-1.70;99.90
19732;DHT22;10017;54.350;18.532;2022-12-17T15:59:57;-1.70;99.90
19732;DHT22;10017;54.350;18.532;2022-12-17T16:02:29;-1.80;99.90
19732;DHT22;10017;54.350;18.532;2022-12-17T16:05:01;-1.90;99.90
19732;DHT22;10017;54.350;18.532;2022-12-17T16:07:33;-1.90;99.90
19732;DHT22;10017;54.350;18.532;2022-12-17T16:10:05;-1.90;99.90
19732;DHT22;10017;54.350;18.532;2022-12-17T16:12:37;-1.90;99.90
19732;DHT22;10017;54.350;18.532;2022-12-17T16:15:10;-2.00;99.90
19732;DHT22;10017;54.350;18.532;2022-12-17T16:17:44;-2.00;99.90
19732;DHT22;10017;54.350;18.532;2022-12-17T16:20:16;-2.10;99.90
19732;DHT22;10017;54.350;18.532;2022-12-17T16:22:48;-2.20;99.90
19732;DHT22;10017;54.350;18.532;2022-12-17T16:25:22;-2.20;99.90
19732;DHT22;10017;54.350;18.532;2022-12-17T16:27:54;-2.30;99.90
19732;DHT22;10017;54.350;18.532;2022-12-17T16:30:26;-2.40;99.90
19732;DHT22;10017;54.350;18.532;2022-12-17T16:32:58;-2.40;99.90
19732;DHT22;10017;54.350;18.532;2022-12-17T16:35:30;-2.50;99.90
19732;DHT22;10017;54.350;18.532;2022-12-17T16:38:02;-2.60;99.90
19732;DHT22;10017;54.350;18.532;2022-12-17T16:40:33;-2.70;99.90
19732;DHT22;10017;54.350;18.532;2022-12-17T16:43:05;-2.80;99.90
19732;DHT22;10017;54.350;18.532;2022-12-17T16:45:38;-2.90;99.90
19732;DHT22;10017;54.350;18.532;2022-12-17T16:48:20;-2.90;99.90
19732;DHT22;10017;54.350;18.532;2022-12-17T16:50:52;-3.00;99.90
19732;DHT22;10017;54.350;18.532;2022-12-17T16:53:24;-3.00;99.90
19732;DHT22;10017;54.350;18.532;2022-12-17T16:55:55;-3.10;99.90
19732;DHT22;10017;54.350;18.532;2022-12-17T16:58:30;-3.20;99.90
19732;DHT22;10017;54.350;18.532;2022-12-17T17:01:01;-3.20;99.90
19732;DHT22;10017;54.350;18.532;2022-12-17T17:03:39;-3.30;99.90
19732;DHT22;10017;54.350;18.532;2022-12-17T17:06:12;-3.30;99.90
19732;DHT22;10017;54.350;18.532;2022-12-17T17:08:46;-3.40;99.90
19732;DHT22;10017;54.350;18.532;2022-12-17T17:11:20;-3.40;99.90
19732;DHT22;10017;54.350;18.532;2022-12-17T17:13:52;-3.40;99.90
19732;DHT22;10017;54.350;18.532;2022-12-17T17:16:25;-3.40;99.90
19732;DHT22;10017;54.350;18.532;2022-12-17T17:18:57;-3.40;99.90
19732;DHT22;10017;54.350;18.532;2022-12-17T17:24:09;-3.50;99.90
19732;DHT22;10017;54.350;18.532;2022-12-17T17:26:50;-3.50;99.90
19732;DHT22;10017;54.350;18.532;2022-12-17T17:29:25;-3.50;99.90
19732;DHT22;10017;54.350;18.532;2022-12-17T17:31:57;-3.60;99.90
19732;DHT22;10017;54.350;18.532;2022-12-17T17:34:45;-3.60;99.90
19732;DHT22;10017;54.350;18.532;2022-12-17T17:37:17;-3.60;99.90
19732;DHT22;10017;54.350;18.532;2022-12-17T17:39:48;-3.70;99.90
19732;DHT22;10017;54.350;18.532;2022-12-17T17:42:20;-3.70;99.90
19732;DHT22;10017;54.350;18.532;2022-12-17T17:45:07;-3.70;99.90
19732;DHT22;10017;54.350;18.532;2022-12-17T17:47:39;-3.70;99.90
19732;DHT22;10017;54.350;18.532;2022-12-17T17:50:11;-3.70;99.90
19732;DHT22;10017;54.350;18.532;2022-12-17T17:52:45;-3.60;99.90
19732;DHT22;10017;54.350;18.532;2022-12-17T17:55:17;-3.60;99.90
19732;DHT22;10017;54.350;18.532;2022-12-17T17:57:49;-3.60;99.90
19732;DHT22;10017;54.350;18.532;2022-12-17T18:00:21;-3.60;99.90
19732;DHT22;10017;54.350;18.532;2022-12-17T18:02:52;-3.60;99.90
19732;DHT22;10017;54.350;18.532;2022-12-17T18:05:24;-3.60;99.90
19732;DHT22;10017;54.350;18.532;2022-12-17T18:07:56;-3.50;99.90
19732;DHT22;10017;54.350;18.532;2022-12-17T18:10:28;-3.50;99.90
19732;DHT22;10017;54.350;18.532;2022-12-17T18:13:00;-3.40;99.90
19732;DHT22;10017;54.350;18.532;2022-12-17T18:15:50;-3.40;99.90
19732;DHT22;10017;54.350;18.532;2022-12-17T18:18:24;-3.30;99.90
19732;DHT22;10017;54.350;18.532;2022-12-17T18:21:30;-3.30;99.90
19732;DHT22;10017;54.350;18.532;2022-12-17T18:24:05;-3.30;99.90
19732;DHT22;10017;54.350;18.532;2022-12-17T18:26:37;-3.30;99.90
19732;DHT22;10017;54.350;18.532;2022-12-17T18:29:20;-3.20;99.90
19732;DHT22;10017;54.350;18.532;2022-12-17T18:31:53;-3.20;99.90
19732;DHT22;10017;54.350;18.532;2022-12-17T18:34:25;-3.20;99.90
19732;DHT22;10017;54.350;18.532;2022-12-17T18:37:00;-3.20;99.90
19732;DHT22;10017;54.350;18.532;2022-12-17T18:39:33;-3.20;99.90
19732;DHT22;10017;54.350;18.532;2022-12-17T18:42:10;-3.20;99.90
19732;DHT22;10017;54.350;18.532;2022-12-17T18:45:00;-3.20;99.90